sensor_id;sensor_type;location;lat;lon;timestamp;P1;durP1;ratioP1;P2;durP2;ratioP2
41221;SDS011;26952;42.884;23.918;2022-09-09T00:03:45;111.57;;;104.97;;
41221;SDS011;26952;42.884;23.918;2022-09-09T00:11:31;104.82;;;98.65;;
41221;SDS011;26952;42.884;23.918;2022-09-09T00:14:02;110.97;;;104.63;;
41221;SDS011;26952;42.884;23.918;2022-09-09T00:16:34;110.88;;;104.57;;
41221;SDS011;26952;42.884;23.918;2022-09-09T00:19:07;106.63;;;100.30;;
41221;SDS011;26952;42.884;23.918;2022-09-09T00:22:29;108.63;;;102.03;;
41221;SDS011;26952;42.884;23.918;2022-09-09T00:30:01;102.97;;;96.78;;
41221;SDS011;26952;42.884;23.918;2022-09-09T00:32:28;98.45;;;92.57;;
41221;SDS011;26952;42.884;23.918;2022-09-09T00:35:42;102.05;;;96.38;;
41221;SDS011;26952;42.884;23.918;2022-09-09T00:37:47;101.15;;;95.28;;
41221;SDS011;26952;42.884;23.918;2022-09-09T00:43:35;90.40;;;85.35;;
41221;SDS011;26952;42.884;23.918;2022-09-09T00:57:32;103.88;;;97.75;;
41221;SDS011;26952;42.884;23.918;2022-09-09T01:03:29;108.78;;;102.57;;
41221;SDS011;26952;42.884;23.918;2022-09-09T01:05:37;105.80;;;99.82;;
41221;SDS011;26952;42.884;23.918;2022-09-09T01:11:00;108.95;;;102.63;;
41221;SDS011;26952;42.884;23.918;2022-09-09T01:13:30;113.50;;;106.88;;
41221;SDS011;26952;42.884;23.918;2022-09-09T01:15:59;106.60;;;100.50;;
41221;SDS011;26952;42.884;23.918;2022-09-09T01:18:27;108.63;;;102.55;;
41221;SDS011;26952;42.884;23.918;2022-09-09T01:29:07;113.50;;;106.68;;
41221;SDS011;26952;42.884;23.918;2022-09-09T01:31:54;109.63;;;103.32;;
41221;SDS011;26952;42.884;23.918;2022-09-09T01:34:20;109.90;;;103.57;;
41221;SDS011;26952;42.884;23.918;2022-09-09T01:36:52;111.00;;;104.78;;
41221;SDS011;26952;42.884;23.918;2022-09-09T01:39:24;111.68;;;105.35;;
41221;SDS011;26952;42.884;23.918;2022-09-09T01:41:50;108.60;;;102.35;;
41221;SDS011;26952;42.884;23.918;2022-09-09T01:44:16;117.75;;;111.15;;
41221;SDS011;26952;42.884;23.918;2022-09-09T01:46:43;111.72;;;105.35;;
41221;SDS011;26952;42.884;23.918;2022-09-09T01:49:08;107.93;;;101.88;;
41221;SDS011;26952;42.884;23.918;2022-09-09T01:51:35;115.35;;;108.78;;
41221;SDS011;26952;42.884;23.918;2022-09-09T01:54:03;103.60;;;97.43;;
41221;SDS011;26952;42.884;23.918;2022-09-09T02:09:39;110.32;;;103.95;;
41221;SDS011;26952;42.884;23.918;2022-09-09T02:12:11;103.25;;;96.95;;
41221;SDS011;26952;42.884;23.918;2022-09-09T02:14:43;112.40;;;105.88;;
41221;SDS011;26952;42.884;23.918;2022-09-09T02:17:15;107.35;;;100.93;;
41221;SDS011;26952;42.884;23.918;2022-09-09T02:19:47;112.10;;;105.65;;
41221;SDS011;26952;42.884;23.918;2022-09-09T02:22:18;110.63;;;104.20;;
41221;SDS011;26952;42.884;23.918;2022-09-09T02:24:47;105.95;;;99.95;;
41221;SDS011;26952;42.884;23.918;2022-09-09T02:27:17;106.10;;;100.03;;
41221;SDS011;26952;42.884;23.918;2022-09-09T02:29:44;110.60;;;104.07;;
41221;SDS011;26952;42.884;23.918;2022-09-09T02:32:13;110.75;;;104.45;;
41221;SDS011;26952;42.884;23.918;2022-09-09T02:34:43;110.43;;;103.85;;
41221;SDS011;26952;42.884;23.918;2022-09-09T02:37:12;112.50;;;105.78;;
41221;SDS011;26952;42.884;23.918;2022-09-09T02:39:42;113.38;;;106.80;;
41221;SDS011;26952;42.884;23.918;2022-09-09T02:42:07;112.22;;;105.63;;
41221;SDS011;26952;42.884;23.918;2022-09-09T02:44:33;110.90;;;104.38;;
41221;SDS011;26952;42.884;23.918;2022-09-09T02:54:41;102.63;;;96.32;;
41221;SDS011;26952;42.884;23.918;2022-09-09T02:59:39;110.18;;;103.65;;
41221;SDS011;26952;42.884;23.918;2022-09-09T03:02:05;108.10;;;101.60;;
41221;SDS011;26952;42.884;23.918;2022-09-09T03:04:31;109.70;;;103.43;;
41221;SDS011;26952;42.884;23.918;2022-09-09T03:06:57;116.68;;;109.63;;
41221;SDS011;26952;42.884;23.918;2022-09-09T03:09:23;111.65;;;105.22;;
41221;SDS011;26952;42.884;23.918;2022-09-09T03:11:48;104.20;;;97.65;;
41221;SDS011;26952;42.884;23.918;2022-09-09T03:14:14;110.70;;;104.40;;
41221;SDS011;26952;42.884;23.918;2022-09-09T03:16:40;108.45;;;101.93;;
41221;SDS011;26952;42.884;23.918;2022-09-09T03:19:07;105.75;;;99.47;;
41221;SDS011;26952;42.884;23.918;2022-09-09T03:21:32;116.15;;;108.85;;
41221;SDS011;26952;42.884;23.918;2022-09-09T03:23:58;114.85;;;107.85;;
41221;SDS011;26952;42.884;23.918;2022-09-09T03:26:23;107.22;;;100.88;;
41221;SDS011;26952;42.884;23.918;2022-09-09T03:28:49;108.75;;;102.45;;
41221;SDS011;26952;42.884;23.918;2022-09-09T03:31:16;109.75;;;103.35;;
41221;SDS011;26952;42.884;23.918;2022-09-09T03:33:44;111.90;;;105.30;;
41221;SDS011;26952;42.884;23.918;2022-09-09T03:36:10;106.97;;;100.65;;
41221;SDS011;26952;42.884;23.918;2022-09-09T03:38:35;115.57;;;108.75;;
41221;SDS011;26952;42.884;23.918;2022-09-09T03:41:00;110.85;;;104.07;;
41221;SDS011;26952;42.884;23.918;2022-09-09T03:43:27;110.22;;;103.90;;
41221;SDS011;26952;42.884;23.918;2022-09-09T03:45:53;116.88;;;109.93;;
41221;SDS011;26952;42.884;23.918;2022-09-09T03:48:22;108.05;;;101.60;;
41221;SDS011;26952;42.884;23.918;2022-09-09T03:50:49;113.75;;;107.00;;
41221;SDS011;26952;42.884;23.918;2022-09-09T03:55:49;108.10;;;101.85;;
41221;SDS011;26952;42.884;23.918;2022-09-09T03:58:17;102.00;;;95.85;;
41221;SDS011;26952;42.884;23.918;2022-09-09T04:00:47;109.25;;;102.68;;
41221;SDS011;26952;42.884;23.918;2022-09-09T04:03:28;108.25;;;102.05;;
41221;SDS011;26952;42.884;23.918;2022-09-09T04:05:54;108.35;;;102.05;;
41221;SDS011;26952;42.884;23.918;2022-09-09T04:08:21;105.03;;;98.90;;
41221;SDS011;26952;42.884;23.918;2022-09-09T04:10:47;110.65;;;104.28;;
41221;SDS011;26952;42.884;23.918;2022-09-09T04:13:14;107.93;;;101.85;;
41221;SDS011;26952;42.884;23.918;2022-09-09T04:15:43;110.00;;;103.82;;
41221;SDS011;26952;42.884;23.918;2022-09-09T04:18:10;109.03;;;103.13;;
41221;SDS011;26952;42.884;23.918;2022-09-09T04:20:36;108.00;;;101.90;;
41221;SDS011;26952;42.884;23.918;2022-09-09T04:23:02;110.55;;;104.32;;
41221;SDS011;26952;42.884;23.918;2022-09-09T04:25:28;104.60;;;98.78;;
41221;SDS011;26952;42.884;23.918;2022-09-09T04:27:54;103.15;;;97.28;;
41221;SDS011;26952;42.884;23.918;2022-09-09T04:30:20;109.38;;;103.13;;
41221;SDS011;26952;42.884;23.918;2022-09-09T04:32:46;104.97;;;99.03;;
41221;SDS011;26952;42.884;23.918;2022-09-09T04:35:11;105.65;;;99.80;;
41221;SDS011;26952;42.884;23.918;2022-09-09T04:37:37;106.53;;;100.57;;
41221;SDS011;26952;42.884;23.918;2022-09-09T04:40:02;108.82;;;102.53;;
41221;SDS011;26952;42.884;23.918;2022-09-09T04:42:28;106.22;;;100.20;;
41221;SDS011;26952;42.884;23.918;2022-09-09T04:44:53;105.10;;;98.82;;
41221;SDS011;26952;42.884;23.918;2022-09-09T04:47:19;110.93;;;104.65;;
41221;SDS011;26952;42.884;23.918;2022-09-09T04:49:44;111.97;;;105.40;;
41221;SDS011;26952;42.884;23.918;2022-09-09T04:52:10;115.15;;;108.43;;
41221;SDS011;26952;42.884;23.918;2022-09-09T04:54:35;104.65;;;98.30;;
41221;SDS011;26952;42.884;23.918;2022-09-09T04:57:01;105.65;;;99.63;;
41221;SDS011;26952;42.884;23.918;2022-09-09T04:59:27;107.63;;;101.38;;
41221;SDS011;26952;42.884;23.918;2022-09-09T05:01:52;112.18;;;105.88;;
41221;SDS011;26952;42.884;23.918;2022-09-09T05:04:20;106.05;;;100.05;;
41221;SDS011;26952;42.884;23.918;2022-09-09T05:06:45;111.47;;;105.22;;
41221;SDS011;26952;42.884;23.918;2022-09-09T05:09:11;114.13;;;107.35;;
41221;SDS011;26952;42.884;23.918;2022-09-09T05:11:36;102.45;;;96.65;;
41221;SDS011;26952;42.884;23.918;2022-09-09T05:14:03;106.35;;;100.28;;
41221;SDS011;26952;42.884;23.918;2022-09-09T05:16:29;106.43;;;100.50;;
41221;SDS011;26952;42.884;23.918;2022-09-09T05:18:55;100.70;;;95.25;;
41221;SDS011;26952;42.884;23.918;2022-09-09T05:21:22;101.80;;;96.15;;
41221;SDS011;26952;42.884;23.918;2022-09-09T05:23:50;93.45;;;88.05;;
41221;SDS011;26952;42.884;23.918;2022-09-09T05:26:17;88.10;;;83.28;;
41221;SDS011;26952;42.884;23.918;2022-09-09T05:28:44;87.93;;;83.28;;
41221;SDS011;26952;42.884;23.918;2022-09-09T05:31:11;93.90;;;88.45;;
41221;SDS011;26952;42.884;23.918;2022-09-09T05:33:38;82.55;;;77.97;;
41221;SDS011;26952;42.884;23.918;2022-09-09T05:36:06;87.13;;;82.40;;
41221;SDS011;26952;42.884;23.918;2022-09-09T05:38:33;88.97;;;84.35;;
41221;SDS011;26952;42.884;23.918;2022-09-09T05:41:00;91.75;;;86.60;;
41221;SDS011;26952;42.884;23.918;2022-09-09T05:43:26;100.18;;;94.25;;
41221;SDS011;26952;42.884;23.918;2022-09-09T05:46:05;109.40;;;103.53;;
41221;SDS011;26952;42.884;23.918;2022-09-09T05:48:40;108.97;;;103.28;;
41221;SDS011;26952;42.884;23.918;2022-09-09T05:51:07;111.50;;;105.43;;
41221;SDS011;26952;42.884;23.918;2022-09-09T05:53:35;121.00;;;114.45;;
41221;SDS011;26952;42.884;23.918;2022-09-09T05:56:01;112.28;;;106.47;;
41221;SDS011;26952;42.884;23.918;2022-09-09T05:58:31;106.50;;;100.95;;
41221;SDS011;26952;42.884;23.918;2022-09-09T06:01:01;105.35;;;99.85;;
41221;SDS011;26952;42.884;23.918;2022-09-09T06:03:35;106.53;;;100.85;;
41221;SDS011;26952;42.884;23.918;2022-09-09T06:06:02;101.18;;;95.25;;
41221;SDS011;26952;42.884;23.918;2022-09-09T06:08:32;91.13;;;86.43;;
41221;SDS011;26952;42.884;23.918;2022-09-09T06:11:06;105.80;;;100.15;;
41221;SDS011;26952;42.884;23.918;2022-09-09T06:13:37;109.75;;;104.13;;
41221;SDS011;26952;42.884;23.918;2022-09-09T06:16:08;117.30;;;111.32;;
41221;SDS011;26952;42.884;23.918;2022-09-09T06:18:36;115.28;;;109.35;;
41221;SDS011;26952;42.884;23.918;2022-09-09T06:21:04;113.35;;;107.47;;
41221;SDS011;26952;42.884;23.918;2022-09-09T06:23:31;133.55;;;126.57;;
41221;SDS011;26952;42.884;23.918;2022-09-09T06:26:04;145.38;;;137.63;;
41221;SDS011;26952;42.884;23.918;2022-09-09T06:28:34;151.13;;;143.30;;
41221;SDS011;26952;42.884;23.918;2022-09-09T06:31:09;166.00;;;157.27;;
41221;SDS011;26952;42.884;23.918;2022-09-09T06:33:39;137.43;;;130.25;;
41221;SDS011;26952;42.884;23.918;2022-09-09T06:39:02;116.18;;;110.20;;
41221;SDS011;26952;42.884;23.918;2022-09-09T06:41:28;119.03;;;112.88;;
41221;SDS011;26952;42.884;23.918;2022-09-09T06:43:55;113.97;;;108.20;;
41221;SDS011;26952;42.884;23.918;2022-09-09T06:46:22;116.10;;;110.22;;
41221;SDS011;26952;42.884;23.918;2022-09-09T06:48:52;117.72;;;111.72;;
41221;SDS011;26952;42.884;23.918;2022-09-09T06:51:21;121.97;;;115.43;;
41221;SDS011;26952;42.884;23.918;2022-09-09T06:53:49;122.22;;;115.85;;
41221;SDS011;26952;42.884;23.918;2022-09-09T06:58:41;116.47;;;110.63;;
41221;SDS011;26952;42.884;23.918;2022-09-09T07:01:09;119.22;;;113.05;;
41221;SDS011;26952;42.884;23.918;2022-09-09T07:03:37;121.88;;;115.47;;
41221;SDS011;26952;42.884;23.918;2022-09-09T07:06:03;120.35;;;113.75;;
41221;SDS011;26952;42.884;23.918;2022-09-09T07:08:28;129.50;;;122.63;;
41221;SDS011;26952;42.884;23.918;2022-09-09T07:11:01;104.25;;;98.90;;
41221;SDS011;26952;42.884;23.918;2022-09-09T07:13:30;110.32;;;104.80;;
41221;SDS011;26952;42.884;23.918;2022-09-09T07:16:03;109.20;;;103.80;;
41221;SDS011;26952;42.884;23.918;2022-09-09T07:18:29;119.82;;;113.75;;
41221;SDS011;26952;42.884;23.918;2022-09-09T07:20:55;124.38;;;118.18;;
41221;SDS011;26952;42.884;23.918;2022-09-09T07:23:22;118.40;;;112.15;;
41221;SDS011;26952;42.884;23.918;2022-09-09T07:25:48;114.57;;;108.75;;
41221;SDS011;26952;42.884;23.918;2022-09-09T07:28:13;123.80;;;117.38;;
41221;SDS011;26952;42.884;23.918;2022-09-09T07:30:39;116.55;;;110.70;;
41221;SDS011;26952;42.884;23.918;2022-09-09T07:33:05;116.43;;;110.30;;
41221;SDS011;26952;42.884;23.918;2022-09-09T07:35:31;116.95;;;110.80;;
41221;SDS011;26952;42.884;23.918;2022-09-09T07:37:56;123.57;;;117.03;;
41221;SDS011;26952;42.884;23.918;2022-09-09T07:40:23;131.98;;;124.90;;
41221;SDS011;26952;42.884;23.918;2022-09-09T07:42:49;134.48;;;127.53;;
41221;SDS011;26952;42.884;23.918;2022-09-09T07:45:14;133.95;;;126.55;;
41221;SDS011;26952;42.884;23.918;2022-09-09T07:47:40;144.95;;;136.93;;
41221;SDS011;26952;42.884;23.918;2022-09-09T07:50:07;146.02;;;138.10;;
41221;SDS011;26952;42.884;23.918;2022-09-09T07:52:34;154.60;;;146.05;;
41221;SDS011;26952;42.884;23.918;2022-09-09T07:54:59;171.30;;;162.07;;
41221;SDS011;26952;42.884;23.918;2022-09-09T07:57:27;171.65;;;162.77;;
41221;SDS011;26952;42.884;23.918;2022-09-09T07:59:55;149.48;;;141.48;;
41221;SDS011;26952;42.884;23.918;2022-09-09T08:02:21;163.60;;;155.32;;
41221;SDS011;26952;42.884;23.918;2022-09-09T08:04:47;144.25;;;136.65;;
41221;SDS011;26952;42.884;23.918;2022-09-09T08:07:13;144.88;;;137.25;;
41221;SDS011;26952;42.884;23.918;2022-09-09T08:09:38;177.77;;;168.32;;
41221;SDS011;26952;42.884;23.918;2022-09-09T08:12:04;153.80;;;145.73;;
41221;SDS011;26952;42.884;23.918;2022-09-09T08:14:31;189.05;;;179.02;;
41221;SDS011;26952;42.884;23.918;2022-09-09T08:16:57;187.00;;;176.90;;
41221;SDS011;26952;42.884;23.918;2022-09-09T08:19:23;149.00;;;141.23;;
41221;SDS011;26952;42.884;23.918;2022-09-09T08:21:48;171.60;;;162.02;;
41221;SDS011;26952;42.884;23.918;2022-09-09T08:24:14;196.90;;;186.40;;
41221;SDS011;26952;42.884;23.918;2022-09-09T08:26:41;189.55;;;179.60;;
41221;SDS011;26952;42.884;23.918;2022-09-09T08:29:10;157.43;;;148.68;;
41221;SDS011;26952;42.884;23.918;2022-09-09T08:31:45;149.40;;;140.63;;
41221;SDS011;26952;42.884;23.918;2022-09-09T08:34:12;199.30;;;188.85;;
41221;SDS011;26952;42.884;23.918;2022-09-09T08:36:40;133.18;;;126.38;;
41221;SDS011;26952;42.884;23.918;2022-09-09T08:39:08;143.80;;;136.17;;
41221;SDS011;26952;42.884;23.918;2022-09-09T08:52:22;152.27;;;143.95;;
41221;SDS011;26952;42.884;23.918;2022-09-09T08:54:50;164.70;;;155.65;;
41221;SDS011;26952;42.884;23.918;2022-09-09T08:57:21;200.48;;;189.55;;
41221;SDS011;26952;42.884;23.918;2022-09-09T08:59:53;169.77;;;160.68;;
41221;SDS011;26952;42.884;23.918;2022-09-09T09:02:37;177.40;;;168.18;;
41221;SDS011;26952;42.884;23.918;2022-09-09T09:05:28;157.55;;;149.10;;
41221;SDS011;26952;42.884;23.918;2022-09-09T09:10:48;205.00;;;194.15;;
41221;SDS011;26952;42.884;23.918;2022-09-09T09:19:17;207.35;;;196.52;;
41221;SDS011;26952;42.884;23.918;2022-09-09T09:21:59;203.18;;;192.60;;
41221;SDS011;26952;42.884;23.918;2022-09-09T09:29:51;100.43;;;95.03;;
41221;SDS011;26952;42.884;23.918;2022-09-09T09:32:22;114.28;;;108.03;;
41221;SDS011;26952;42.884;23.918;2022-09-09T09:34:58;111.22;;;105.45;;
41221;SDS011;26952;42.884;23.918;2022-09-09T09:37:30;155.55;;;147.02;;
41221;SDS011;26952;42.884;23.918;2022-09-09T09:40:11;230.88;;;218.68;;
41221;SDS011;26952;42.884;23.918;2022-09-09T09:42:52;111.75;;;105.63;;
41221;SDS011;26952;42.884;23.918;2022-09-09T09:48:00;102.30;;;96.53;;
41221;SDS011;26952;42.884;23.918;2022-09-09T09:50:30;104.65;;;98.68;;
41221;SDS011;26952;42.884;23.918;2022-09-09T09:53:01;107.95;;;101.72;;
41221;SDS011;26952;42.884;23.918;2022-09-09T09:55:30;99.90;;;94.32;;
41221;SDS011;26952;42.884;23.918;2022-09-09T09:58:02;106.13;;;100.10;;
41221;SDS011;26952;42.884;23.918;2022-09-09T10:00:29;97.07;;;92.03;;
41221;SDS011;26952;42.884;23.918;2022-09-09T10:02:54;90.40;;;85.45;;
41221;SDS011;26952;42.884;23.918;2022-09-09T10:05:24;94.10;;;89.07;;
41221;SDS011;26952;42.884;23.918;2022-09-09T10:08:08;98.75;;;93.53;;
41221;SDS011;26952;42.884;23.918;2022-09-09T10:10:48;165.57;;;156.25;;
41221;SDS011;26952;42.884;23.918;2022-09-09T10:40:01;118.10;;;112.05;;
41221;SDS011;26952;42.884;23.918;2022-09-09T10:42:40;177.45;;;167.73;;
41221;SDS011;26952;42.884;23.918;2022-09-09T10:45:15;244.07;;;231.23;;
41221;SDS011;26952;42.884;23.918;2022-09-09T10:50:49;258.65;;;244.82;;
41221;SDS011;26952;42.884;23.918;2022-09-09T10:56:07;270.48;;;256.08;;
41221;SDS011;26952;42.884;23.918;2022-09-09T10:58:41;251.90;;;238.70;;
41221;SDS011;26952;42.884;23.918;2022-09-09T11:01:17;268.88;;;255.00;;
41221;SDS011;26952;42.884;23.918;2022-09-09T11:03:49;270.13;;;255.75;;
41221;SDS011;26952;42.884;23.918;2022-09-09T11:06:22;263.33;;;249.60;;
41221;SDS011;26952;42.884;23.918;2022-09-09T11:08:54;244.93;;;232.07;;
41221;SDS011;26952;42.884;23.918;2022-09-09T11:11:34;253.98;;;240.80;;
41221;SDS011;26952;42.884;23.918;2022-09-09T11:17:05;249.85;;;236.07;;
41221;SDS011;26952;42.884;23.918;2022-09-09T11:19:37;262.88;;;248.57;;
41221;SDS011;26952;42.884;23.918;2022-09-09T11:22:07;236.18;;;223.70;;
41221;SDS011;26952;42.884;23.918;2022-09-09T11:24:41;237.52;;;225.18;;
41221;SDS011;26952;42.884;23.918;2022-09-09T11:27:17;220.10;;;208.52;;
41221;SDS011;26952;42.884;23.918;2022-09-09T11:30:11;238.80;;;226.07;;
41221;SDS011;26952;42.884;23.918;2022-09-09T11:38:05;250.10;;;237.02;;
41221;SDS011;26952;42.884;23.918;2022-09-09T11:40:58;226.77;;;214.80;;
41221;SDS011;26952;42.884;23.918;2022-09-09T11:43:41;230.30;;;218.07;;
41221;SDS011;26952;42.884;23.918;2022-09-09T11:46:10;212.82;;;201.48;;
41221;SDS011;26952;42.884;23.918;2022-09-09T11:48:41;210.30;;;199.20;;
41221;SDS011;26952;42.884;23.918;2022-09-09T11:51:13;194.55;;;184.02;;
41221;SDS011;26952;42.884;23.918;2022-09-09T11:53:52;180.23;;;170.48;;
41221;SDS011;26952;42.884;23.918;2022-09-09T11:58:56;233.43;;;220.75;;
41221;SDS011;26952;42.884;23.918;2022-09-09T12:01:29;210.80;;;199.68;;
41221;SDS011;26952;42.884;23.918;2022-09-09T12:04:12;195.40;;;184.68;;
41221;SDS011;26952;42.884;23.918;2022-09-09T12:06:48;196.40;;;185.88;;
41221;SDS011;26952;42.884;23.918;2022-09-09T12:09:31;182.88;;;172.48;;
41221;SDS011;26952;42.884;23.918;2022-09-09T12:12:27;180.90;;;170.90;;
41221;SDS011;26952;42.884;23.918;2022-09-09T12:15:00;187.55;;;176.93;;
41221;SDS011;26952;42.884;23.918;2022-09-09T12:17:52;181.90;;;171.95;;
41221;SDS011;26952;42.884;23.918;2022-09-09T12:37:33;151.35;;;143.00;;
41221;SDS011;26952;42.884;23.918;2022-09-09T12:40:06;138.95;;;131.05;;
41221;SDS011;26952;42.884;23.918;2022-09-09T12:42:45;163.20;;;154.32;;
41221;SDS011;26952;42.884;23.918;2022-09-09T12:45:15;182.40;;;172.38;;
41221;SDS011;26952;42.884;23.918;2022-09-09T12:47:54;136.40;;;128.73;;
41221;SDS011;26952;42.884;23.918;2022-09-09T12:50:21;122.03;;;115.18;;
41221;SDS011;26952;42.884;23.918;2022-09-09T12:52:50;136.55;;;128.80;;
41221;SDS011;26952;42.884;23.918;2022-09-09T12:55:30;128.88;;;121.32;;
41221;SDS011;26952;42.884;23.918;2022-09-09T12:57:58;224.65;;;213.05;;
41221;SDS011;26952;42.884;23.918;2022-09-09T13:00:26;232.45;;;220.20;;
41221;SDS011;26952;42.884;23.918;2022-09-09T13:02:56;234.25;;;222.23;;
41221;SDS011;26952;42.884;23.918;2022-09-09T13:05:27;242.13;;;229.18;;
41221;SDS011;26952;42.884;23.918;2022-09-09T13:08:02;243.75;;;230.63;;
41221;SDS011;26952;42.884;23.918;2022-09-09T13:10:29;244.80;;;231.55;;
41221;SDS011;26952;42.884;23.918;2022-09-09T13:12:58;229.98;;;217.55;;
41221;SDS011;26952;42.884;23.918;2022-09-09T13:15:26;218.52;;;206.65;;
41221;SDS011;26952;42.884;23.918;2022-09-09T13:17:54;212.68;;;200.93;;
41221;SDS011;26952;42.884;23.918;2022-09-09T13:20:22;222.90;;;210.90;;
41221;SDS011;26952;42.884;23.918;2022-09-09T13:22:50;240.05;;;227.65;;
41221;SDS011;26952;42.884;23.918;2022-09-09T13:25:19;230.43;;;218.48;;
41221;SDS011;26952;42.884;23.918;2022-09-09T13:28:01;254.10;;;240.98;;
41221;SDS011;26952;42.884;23.918;2022-09-09T13:30:30;246.43;;;233.18;;
41221;SDS011;26952;42.884;23.918;2022-09-09T13:35:44;226.70;;;214.75;;
41221;SDS011;26952;42.884;23.918;2022-09-09T13:38:32;243.27;;;230.27;;
41221;SDS011;26952;42.884;23.918;2022-09-09T13:41:01;235.15;;;222.85;;
41221;SDS011;26952;42.884;23.918;2022-09-09T13:43:43;216.65;;;205.30;;
41221;SDS011;26952;42.884;23.918;2022-09-09T13:46:58;222.07;;;210.35;;
41221;SDS011;26952;42.884;23.918;2022-09-09T13:54:03;202.27;;;190.93;;
41221;SDS011;26952;42.884;23.918;2022-09-09T13:56:31;180.02;;;170.18;;
41221;SDS011;26952;42.884;23.918;2022-09-09T13:59:00;226.60;;;214.63;;
41221;SDS011;26952;42.884;23.918;2022-09-09T14:01:26;222.45;;;210.35;;
41221;SDS011;26952;42.884;23.918;2022-09-09T14:03:52;195.48;;;184.65;;
41221;SDS011;26952;42.884;23.918;2022-09-09T14:06:18;171.77;;;161.45;;
41221;SDS011;26952;42.884;23.918;2022-09-09T14:08:43;225.15;;;213.15;;
41221;SDS011;26952;42.884;23.918;2022-09-09T14:11:11;187.15;;;177.02;;
41221;SDS011;26952;42.884;23.918;2022-09-09T14:13:38;218.38;;;206.90;;
41221;SDS011;26952;42.884;23.918;2022-09-09T14:16:03;219.35;;;207.80;;
41221;SDS011;26952;42.884;23.918;2022-09-09T14:18:29;211.23;;;199.32;;
41221;SDS011;26952;42.884;23.918;2022-09-09T14:20:54;175.88;;;166.02;;
41221;SDS011;26952;42.884;23.918;2022-09-09T14:23:20;210.10;;;198.93;;
41221;SDS011;26952;42.884;23.918;2022-09-09T14:25:47;208.25;;;196.77;;
41221;SDS011;26952;42.884;23.918;2022-09-09T14:28:13;187.60;;;177.68;;
41221;SDS011;26952;42.884;23.918;2022-09-09T14:30:39;157.85;;;148.82;;
41221;SDS011;26952;42.884;23.918;2022-09-09T14:33:06;194.95;;;184.43;;
41221;SDS011;26952;42.884;23.918;2022-09-09T14:35:33;229.73;;;217.73;;
41221;SDS011;26952;42.884;23.918;2022-09-09T14:37:59;182.60;;;172.43;;
41221;SDS011;26952;42.884;23.918;2022-09-09T14:40:26;162.77;;;153.52;;
41221;SDS011;26952;42.884;23.918;2022-09-09T14:42:52;198.15;;;186.95;;
41221;SDS011;26952;42.884;23.918;2022-09-09T14:45:18;195.20;;;184.43;;
41221;SDS011;26952;42.884;23.918;2022-09-09T14:47:43;204.73;;;194.00;;
41221;SDS011;26952;42.884;23.918;2022-09-09T14:50:09;207.65;;;196.75;;
41221;SDS011;26952;42.884;23.918;2022-09-09T14:52:37;224.55;;;212.52;;
41221;SDS011;26952;42.884;23.918;2022-09-09T14:55:02;199.70;;;189.23;;
41221;SDS011;26952;42.884;23.918;2022-09-09T14:57:28;197.10;;;186.70;;
41221;SDS011;26952;42.884;23.918;2022-09-09T14:59:53;185.27;;;174.10;;
41221;SDS011;26952;42.884;23.918;2022-09-09T15:02:19;187.07;;;176.88;;
41221;SDS011;26952;42.884;23.918;2022-09-09T15:04:44;217.32;;;205.77;;
41221;SDS011;26952;42.884;23.918;2022-09-09T15:07:10;211.80;;;200.80;;
41221;SDS011;26952;42.884;23.918;2022-09-09T15:09:36;195.30;;;185.00;;
41221;SDS011;26952;42.884;23.918;2022-09-09T15:12:02;187.27;;;177.07;;
41221;SDS011;26952;42.884;23.918;2022-09-09T15:14:29;183.43;;;173.57;;
41221;SDS011;26952;42.884;23.918;2022-09-09T15:16:55;195.07;;;183.35;;
41221;SDS011;26952;42.884;23.918;2022-09-09T15:19:21;178.32;;;168.20;;
41221;SDS011;26952;42.884;23.918;2022-09-09T15:21:46;173.93;;;164.48;;
41221;SDS011;26952;42.884;23.918;2022-09-09T15:24:12;162.95;;;153.85;;
41221;SDS011;26952;42.884;23.918;2022-09-09T15:26:38;144.68;;;136.93;;
41221;SDS011;26952;42.884;23.918;2022-09-09T15:29:04;159.13;;;150.18;;
41221;SDS011;26952;42.884;23.918;2022-09-09T15:31:30;156.07;;;147.32;;
41221;SDS011;26952;42.884;23.918;2022-09-09T15:34:00;151.98;;;143.85;;
41221;SDS011;26952;42.884;23.918;2022-09-09T15:36:28;131.00;;;123.85;;
41221;SDS011;26952;42.884;23.918;2022-09-09T15:38:54;135.57;;;128.30;;
41221;SDS011;26952;42.884;23.918;2022-09-09T15:41:20;112.43;;;106.18;;
41221;SDS011;26952;42.884;23.918;2022-09-09T15:43:53;116.75;;;110.47;;
41221;SDS011;26952;42.884;23.918;2022-09-09T15:46:33;104.82;;;99.07;;
41221;SDS011;26952;42.884;23.918;2022-09-09T15:51:28;106.35;;;100.65;;
41221;SDS011;26952;42.884;23.918;2022-09-09T15:53:56;109.75;;;103.90;;
41221;SDS011;26952;42.884;23.918;2022-09-09T15:56:24;112.60;;;106.45;;
41221;SDS011;26952;42.884;23.918;2022-09-09T15:58:50;101.53;;;96.20;;
41221;SDS011;26952;42.884;23.918;2022-09-09T16:01:17;105.72;;;99.78;;
41221;SDS011;26952;42.884;23.918;2022-09-09T16:03:43;103.05;;;97.45;;
41221;SDS011;26952;42.884;23.918;2022-09-09T16:06:14;118.85;;;112.18;;
41221;SDS011;26952;42.884;23.918;2022-09-09T16:08:41;117.38;;;111.03;;
41221;SDS011;26952;42.884;23.918;2022-09-09T16:11:30;131.23;;;124.03;;
41221;SDS011;26952;42.884;23.918;2022-09-09T16:13:59;130.40;;;123.18;;
41221;SDS011;26952;42.884;23.918;2022-09-09T16:16:25;127.07;;;119.68;;
41221;SDS011;26952;42.884;23.918;2022-09-09T16:18:53;124.80;;;117.60;;
41221;SDS011;26952;42.884;23.918;2022-09-09T16:21:21;143.10;;;135.30;;
41221;SDS011;26952;42.884;23.918;2022-09-09T16:23:49;145.23;;;136.30;;
41221;SDS011;26952;42.884;23.918;2022-09-09T16:26:18;136.30;;;128.48;;
41221;SDS011;26952;42.884;23.918;2022-09-09T16:28:45;133.85;;;126.22;;
41221;SDS011;26952;42.884;23.918;2022-09-09T16:31:14;136.93;;;129.10;;
41221;SDS011;26952;42.884;23.918;2022-09-09T16:33:42;145.77;;;137.32;;
41221;SDS011;26952;42.884;23.918;2022-09-09T16:36:08;152.60;;;144.38;;
41221;SDS011;26952;42.884;23.918;2022-09-09T16:38:36;152.07;;;143.45;;
41221;SDS011;26952;42.884;23.918;2022-09-09T16:41:05;150.25;;;141.80;;
41221;SDS011;26952;42.884;23.918;2022-09-09T16:43:32;145.70;;;137.52;;
41221;SDS011;26952;42.884;23.918;2022-09-09T16:45:58;147.75;;;139.43;;
41221;SDS011;26952;42.884;23.918;2022-09-09T16:48:26;143.52;;;135.35;;
41221;SDS011;26952;42.884;23.918;2022-09-09T16:53:25;121.53;;;114.97;;